sensor_id;sensor_type;location;lat;lon;timestamp;temperature;humidity
4366;DHT22;2196;47.422;9.656;2022-12-18T00:00:47;-3.40;99.90
4366;DHT22;2196;47.422;9.656;2022-12-18T00:03:15;-3.40;99.90
4366;DHT22;2196;47.422;9.656;2022-12-18T00:05:48;-3.40;99.90
4366;DHT22;2196;47.422;9.656;2022-12-18T00:08:15;-3.40;99.90
4366;DHT22;2196;47.422;9.656;2022-12-18T00:10:43;-3.30;99.90
4366;DHT22;2196;47.422;9.656;2022-12-18T00:13:11;-3.40;99.90
4366;DHT22;2196;47.422;9.656;2022-12-18T00:15:39;-3.40;99.90
4366;DHT22;2196;47.422;9.656;2022-12-18T00:18:06;-3.50;99.90
4366;DHT22;2196;47.422;9.656;2022-12-18T00:20:36;-3.50;99.90
4366;DHT22;2196;47.422;9.656;2022-12-18T00:23:04;-3.50;99.90
4366;DHT22;2196;47.422;9.656;2022-12-18T00:25:32;-3.50;99.90
4366;DHT22;2196;47.422;9.656;2022-12-18T00:28:00;-3.50;99.90
4366;DHT22;2196;47.422;9.656;2022-12-18T00:30:27;-3.50;99.90
4366;DHT22;2196;47.422;9.656;2022-12-18T00:32:55;-3.50;99.90
4366;DHT22;2196;47.422;9.656;2022-12-18T00:35:22;-3.40;99.90
4366;DHT22;2196;47.422;9.656;2022-12-18T00:37:49;-3.40;99.90
4366;DHT22;2196;47.422;9.656;2022-12-18T00:40:16;-3.40;99.90
4366;DHT22;2196;47.422;9.656;2022-12-18T00:42:43;-3.30;99.90
4366;DHT22;2196;47.422;9.656;2022-12-18T00:45:22;-3.30;99.90
4366;DHT22;2196;47.422;9.656;2022-12-18T00:47:49;-3.30;99.90
4366;DHT22;2196;47.422;9.656;2022-12-18T00:50:18;-3.40;99.90
4366;DHT22;2196;47.422;9.656;2022-12-18T00:52:45;-3.40;99.90
4366;DHT22;2196;47.422;9.656;2022-12-18T00:55:12;-3.40;99.90
4366;DHT22;2196;47.422;9.656;2022-12-18T00:57:39;-3.50;99.90
4366;DHT22;2196;47.422;9.656;2022-12-18T01:00:08;-3.50;99.90
4366;DHT22;2196;47.422;9.656;2022-12-18T01:02:36;-3.50;99.90
4366;DHT22;2196;47.422;9.656;2022-12-18T01:05:03;-3.50;99.90
4366;DHT22;2196;47.422;9.656;2022-12-18T01:07:32;-3.60;99.90
4366;DHT22;2196;47.422;9.656;2022-12-18T01:09:59;-3.60;99.90
4366;DHT22;2196;47.422;9.656;2022-12-18T01:12:26;-3.60;99.90
4366;DHT22;2196;47.422;9.656;2022-12-18T01:14:53;-3.60;99.90
4366;DHT22;2196;47.422;9.656;2022-12-18T01:17:20;-3.60;99.90
4366;DHT22;2196;47.422;9.656;2022-12-18T01:19:47;-3.50;99.90
4366;DHT22;2196;47.422;9.656;2022-12-18T01:22:14;-3.40;99.90
4366;DHT22;2196;47.422;9.656;2022-12-18T01:24:42;-3.40;99.90
4366;DHT22;2196;47.422;9.656;2022-12-18T01:27:09;-3.40;99.90
4366;DHT22;2196;47.422;9.656;2022-12-18T01:29:36;-3.30;99.90
4366;DHT22;2196;47.422;9.656;2022-12-18T01:32:03;-3.20;99.90
4366;DHT22;2196;47.422;9.656;2022-12-18T01:34:30;-3.30;99.90
4366;DHT22;2196;47.422;9.656;2022-12-18T01:36:57;-3.30;99.90
4366;DHT22;2196;47.422;9.656;2022-12-18T01:39:24;-3.30;99.90
4366;DHT22;2196;47.422;9.656;2022-12-18T01:41:55;-3.30;99.90
4366;DHT22;2196;47.422;9.656;2022-12-18T01:44:57;-3.20;99.90
4366;DHT22;2196;47.422;9.656;2022-12-18T01:47:27;-3.30;99.90
4366;DHT22;2196;47.422;9.656;2022-12-18T01:49:56;-3.30;99.90
4366;DHT22;2196;47.422;9.656;2022-12-18T01:52:24;-3.30;99.90
4366;DHT22;2196;47.422;9.656;2022-12-18T01:54:53;-3.30;99.90
4366;DHT22;2196;47.422;9.656;2022-12-18T01:57:23;-3.30;99.90
4366;DHT22;2196;47.422;9.656;2022-12-18T01:59:53;-3.30;99.90
4366;DHT22;2196;47.422;9.656;2022-12-18T02:02:22;-3.30;99.90
4366;DHT22;2196;47.422;9.656;2022-12-18T02:04:49;-3.30;99.90
4366;DHT22;2196;47.422;9.656;2022-12-18T02:07:21;-3.30;99.90
4366;DHT22;2196;47.422;9.656;2022-12-18T02:09:53;-3.30;99.90
4366;DHT22;2196;47.422;9.656;2022-12-18T02:12:29;-3.20;99.90
4366;DHT22;2196;47.422;9.656;2022-12-18T02:15:02;-3.20;99.90
4366;DHT22;2196;47.422;9.656;2022-12-18T02:17:36;-3.20;99.90
4366;DHT22;2196;47.422;9.656;2022-12-18T02:20:10;-3.20;99.90
4366;DHT22;2196;47.422;9.656;2022-12-18T02:22:46;-3.10;99.90
4366;DHT22;2196;47.422;9.656;2022-12-18T02:25:28;-3.10;99.90
4366;DHT22;2196;47.422;9.656;2022-12-18T02:28:02;-3.00;99.90
4366;DHT22;2196;47.422;9.656;2022-12-18T02:30:32;-3.00;99.90
4366;DHT22;2196;47.422;9.656;2022-12-18T02:33:01;-3.00;99.90
4366;DHT22;2196;47.422;9.656;2022-12-18T02:35:30;-3.00;99.90
4366;DHT22;2196;47.422;9.656;2022-12-18T02:37:58;-3.00;99.90
4366;DHT22;2196;47.422;9.656;2022-12-18T02:40:26;-3.10;99.90
4366;DHT22;2196;47.422;9.656;2022-12-18T02:42:55;-3.20;99.90
4366;DHT22;2196;47.422;9.656;2022-12-18T02:45:23;-3.30;99.90
4366;DHT22;2196;47.422;9.656;2022-12-18T02:47:50;-3.20;99.90
4366;DHT22;2196;47.422;9.656;2022-12-18T02:50:28;-3.20;99.90
4366;DHT22;2196;47.422;9.656;2022-12-18T02:53:08;-3.30;99.90
4366;DHT22;2196;47.422;9.656;2022-12-18T02:55:48;-3.30;99.90
4366;DHT22;2196;47.422;9.656;2022-12-18T02:58:23;-3.30;99.90
4366;DHT22;2196;47.422;9.656;2022-12-18T03:00:58;-3.20;99.90
4366;DHT22;2196;47.422;9.656;2022-12-18T03:03:29;-3.20;99.90
4366;DHT22;2196;47.422;9.656;2022-12-18T03:06:01;-3.20;99.90
4366;DHT22;2196;47.422;9.656;2022-12-18T03:08:34;-3.10;99.90
4366;DHT22;2196;47.422;9.656;2022-12-18T03:11:06;-3.10;99.90
4366;DHT22;2196;47.422;9.656;2022-12-18T03:13:36;-3.10;99.90
4366;DHT22;2196;47.422;9.656;2022-12-18T03:16:08;-3.10;99.90
4366;DHT22;2196;47.422;9.656;2022-12-18T03:18:45;-3.00;99.90
4366;DHT22;2196;47.422;9.656;2022-12-18T03:21:14;-2.90;99.90
4366;DHT22;2196;47.422;9.656;2022-12-18T03:23:47;-2.80;99.90
4366;DHT22;2196;47.422;9.656;2022-12-18T03:26:17;-2.80;99.90
4366;DHT22;2196;47.422;9.656;2022-12-18T03:28:49;-2.90;99.90
4366;DHT22;2196;47.422;9.656;2022-12-18T03:31:20;-2.90;99.90
4366;DHT22;2196;47.422;9.656;2022-12-18T03:33:52;-2.90;99.90
4366;DHT22;2196;47.422;9.656;2022-12-18T03:36:19;-2.90;99.90
4366;DHT22;2196;47.422;9.656;2022-12-18T03:38:47;-2.90;99.90
4366;DHT22;2196;47.422;9.656;2022-12-18T03:41:18;-2.80;99.90
4366;DHT22;2196;47.422;9.656;2022-12-18T03:43:51;-2.90;99.90
4366;DHT22;2196;47.422;9.656;2022-12-18T03:46:26;-2.90;99.90
4366;DHT22;2196;47.422;9.656;2022-12-18T03:48:59;-2.80;99.90
4366;DHT22;2196;47.422;9.656;2022-12-18T03:51:35;-2.70;99.90
4366;DHT22;2196;47.422;9.656;2022-12-18T03:54:05;-2.80;99.90
4366;DHT22;2196;47.422;9.656;2022-12-18T03:56:36;-2.70;99.90
4366;DHT22;2196;47.422;9.656;2022-12-18T03:59:05;-2.70;99.90
4366;DHT22;2196;47.422;9.656;2022-12-18T04:01:38;-2.70;99.90
4366;DHT22;2196;47.422;9.656;2022-12-18T04:04:06;-2.70;99.90
4366;DHT22;2196;47.422;9.656;2022-12-18T04:06:35;-2.70;99.90
4366;DHT22;2196;47.422;9.656;2022-12-18T04:09:03;-2.70;99.90
4366;DHT22;2196;47.422;9.656;2022-12-18T04:11:30;-2.70;99.90
4366;DHT22;2196;47.422;9.656;2022-12-18T04:13:58;-2.70;99.90
4366;DHT22;2196;47.422;9.656;2022-12-18T04:16:25;-2.70;99.90
4366;DHT22;2196;47.422;9.656;2022-12-18T04:18:54;-2.70;99.90
4366;DHT22;2196;47.422;9.656;2022-12-18T04:21:21;-2.70;99.90
4366;DHT22;2196;47.422;9.656;2022-12-18T04:23:48;-2.80;99.90
4366;DHT22;2196;47.422;9.656;2022-12-18T04:26:15;-2.80;99.90
4366;DHT22;2196;47.422;9.656;2022-12-18T04:28:42;-2.80;99.90
4366;DHT22;2196;47.422;9.656;2022-12-18T04:31:09;-2.80;99.90
4366;DHT22;2196;47.422;9.656;2022-12-18T04:33:36;-2.80;99.90
4366;DHT22;2196;47.422;9.656;2022-12-18T04:36:05;-2.90;99.90
4366;DHT22;2196;47.422;9.656;2022-12-18T04:38:32;-3.00;99.90
4366;DHT22;2196;47.422;9.656;2022-12-18T04:40:59;-3.00;99.90
4366;DHT22;2196;47.422;9.656;2022-12-18T04:43:26;-3.20;99.90
4366;DHT22;2196;47.422;9.656;2022-12-18T04:45:53;-3.20;99.90
4366;DHT22;2196;47.422;9.656;2022-12-18T04:48:20;-3.30;99.90
4366;DHT22;2196;47.422;9.656;2022-12-18T04:50:47;-3.40;99.90
4366;DHT22;2196;47.422;9.656;2022-12-18T04:53:16;-3.40;99.90
4366;DHT22;2196;47.422;9.656;2022-12-18T04:55:43;-3.40;99.90
4366;DHT22;2196;47.422;9.656;2022-12-18T04:58:10;-3.30;99.90
4366;DHT22;2196;47.422;9.656;2022-12-18T05:00:37;-3.40;99.90
4366;DHT22;2196;47.422;9.656;2022-12-18T05:03:04;-3.40;99.90
4366;DHT22;2196;47.422;9.656;2022-12-18T05:05:31;-3.40;99.90
4366;DHT22;2196;47.422;9.656;2022-12-18T05:07:58;-3.40;99.90
4366;DHT22;2196;47.422;9.656;2022-12-18T05:10:26;-3.50;99.90
4366;DHT22;2196;47.422;9.656;2022-12-18T05:12:53;-3.50;99.90
4366;DHT22;2196;47.422;9.656;2022-12-18T05:15:28;-3.50;99.90
4366;DHT22;2196;47.422;9.656;2022-12-18T05:17:55;-3.50;99.90
4366;DHT22;2196;47.422;9.656;2022-12-18T05:20:22;-3.50;99.90
4366;DHT22;2196;47.422;9.656;2022-12-18T05:22:50;-3.50;99.90
4366;DHT22;2196;47.422;9.656;2022-12-18T05:25:17;-3.40;99.90
4366;DHT22;2196;47.422;9.656;2022-12-18T05:27:46;-3.40;99.90
4366;DHT22;2196;47.422;9.656;2022-12-18T05:30:14;-3.40;99.90
4366;DHT22;2196;47.422;9.656;2022-12-18T05:32:41;-3.30;99.90
4366;DHT22;2196;47.422;9.656;2022-12-18T05:35:10;-3.30;99.90
4366;DHT22;2196;47.422;9.656;2022-12-18T05:37:37;-3.30;99.90
4366;DHT22;2196;47.422;9.656;2022-12-18T05:40:05;-3.30;99.90
4366;DHT22;2196;47.422;9.656;2022-12-18T05:42:32;-3.40;99.90
4366;DHT22;2196;47.422;9.656;2022-12-18T05:45:01;-3.40;99.90
4366;DHT22;2196;47.422;9.656;2022-12-18T05:47:28;-3.40;99.90
4366;DHT22;2196;47.422;9.656;2022-12-18T05:49:55;-3.50;99.90
4366;DHT22;2196;47.422;9.656;2022-12-18T05:52:22;-3.50;99.90
4366;DHT22;2196;47.422;9.656;2022-12-18T05:54:49;-3.50;99.90
4366;DHT22;2196;47.422;9.656;2022-12-18T05:57:16;-3.50;99.90
4366;DHT22;2196;47.422;9.656;2022-12-18T05:59:43;-3.50;99.90
4366;DHT22;2196;47.422;9.656;2022-12-18T06:02:11;-3.50;99.90
4366;DHT22;2196;47.422;9.656;2022-12-18T06:04:38;-3.50;99.90
4366;DHT22;2196;47.422;9.656;2022-12-18T06:07:05;-3.50;99.90
4366;DHT22;2196;47.422;9.656;2022-12-18T06:09:32;-3.40;99.90
4366;DHT22;2196;47.422;9.656;2022-12-18T06:11:59;-3.30;99.90
4366;DHT22;2196;47.422;9.656;2022-12-18T06:14:26;-3.40;99.90
4366;DHT22;2196;47.422;9.656;2022-12-18T06:16:53;-3.40;99.90
4366;DHT22;2196;47.422;9.656;2022-12-18T06:19:22;-3.40;99.90
4366;DHT22;2196;47.422;9.656;2022-12-18T06:21:49;-3.40;99.90
4366;DHT22;2196;47.422;9.656;2022-12-18T06:24:19;-3.40;99.90
4366;DHT22;2196;47.422;9.656;2022-12-18T06:26:46;-3.40;99.90
4366;DHT22;2196;47.422;9.656;2022-12-18T06:29:13;-3.40;99.90
4366;DHT22;2196;47.422;9.656;2022-12-18T06:31:40;-3.40;99.90
4366;DHT22;2196;47.422;9.656;2022-12-18T06:34:07;-3.30;99.90
4366;DHT22;2196;47.422;9.656;2022-12-18T06:36:35;-3.30;99.90
4366;DHT22;2196;47.422;9.656;2022-12-18T06:39:02;-3.40;99.90
4366;DHT22;2196;47.422;9.656;2022-12-18T06:41:29;-3.40;99.90
4366;DHT22;2196;47.422;9.656;2022-12-18T06:43:57;-3.30;99.90
4366;DHT22;2196;47.422;9.656;2022-12-18T06:46:24;-3.30;99.90
4366;DHT22;2196;47.422;9.656;2022-12-18T06:48:51;-3.30;99.90
4366;DHT22;2196;47.422;9.656;2022-12-18T06:51:20;-3.30;99.90
4366;DHT22;2196;47.422;9.656;2022-12-18T06:53:49;-3.30;99.90
4366;DHT22;2196;47.422;9.656;2022-12-18T06:56:16;-3.30;99.90
4366;DHT22;2196;47.422;9.656;2022-12-18T06:58:43;-3.10;99.90
4366;DHT22;2196;47.422;9.656;2022-12-18T07:01:12;-3.10;99.90
4366;DHT22;2196;47.422;9.656;2022-12-18T07:03:40;-3.20;99.90
4366;DHT22;2196;47.422;9.656;2022-12-18T07:06:11;-3.20;99.90
4366;DHT22;2196;47.422;9.656;2022-12-18T07:08:39;-3.10;99.90
4366;DHT22;2196;47.422;9.656;2022-12-18T07:11:08;-3.10;99.90
4366;DHT22;2196;47.422;9.656;2022-12-18T07:13:35;-3.10;99.90
4366;DHT22;2196;47.422;9.656;2022-12-18T07:16:06;-3.10;99.90
4366;DHT22;2196;47.422;9.656;2022-12-18T07:18:34;-3.10;99.90
4366;DHT22;2196;47.422;9.656;2022-12-18T07:21:03;-3.10;99.90
4366;DHT22;2196;47.422;9.656;2022-12-18T07:23:32;-3.10;99.90
4366;DHT22;2196;47.422;9.656;2022-12-18T07:26:01;-3.00;99.90
4366;DHT22;2196;47.422;9.656;2022-12-18T07:28:30;-3.00;99.90
4366;DHT22;2196;47.422;9.656;2022-12-18T07:30:57;-3.00;99.90
4366;DHT22;2196;47.422;9.656;2022-12-18T07:33:26;-3.00;99.90
4366;DHT22;2196;47.422;9.656;2022-12-18T07:35:53;-3.00;99.90
4366;DHT22;2196;47.422;9.656;2022-12-18T07:38:20;-3.10;99.90
4366;DHT22;2196;47.422;9.656;2022-12-18T07:40:47;-3.10;99.90
4366;DHT22;2196;47.422;9.656;2022-12-18T07:43:14;-3.00;99.90
4366;DHT22;2196;47.422;9.656;2022-12-18T07:45:43;-3.00;99.90
4366;DHT22;2196;47.422;9.656;2022-12-18T07:48:10;-3.00;99.90
4366;DHT22;2196;47.422;9.656;2022-12-18T07:50:37;-2.90;99.90
4366;DHT22;2196;47.422;9.656;2022-12-18T07:53:05;-2.90;99.90
4366;DHT22;2196;47.422;9.656;2022-12-18T07:55:32;-2.90;99.90
4366;DHT22;2196;47.422;9.656;2022-12-18T07:58:01;-2.90;99.90
4366;DHT22;2196;47.422;9.656;2022-12-18T08:00:29;-2.90;99.90
4366;DHT22;2196;47.422;9.656;2022-12-18T08:02:57;-2.80;99.90
4366;DHT22;2196;47.422;9.656;2022-12-18T08:05:24;-2.80;99.90
4366;DHT22;2196;47.422;9.656;2022-12-18T08:07:51;-2.70;99.90
4366;DHT22;2196;47.422;9.656;2022-12-18T08:10:19;-2.60;99.90
4366;DHT22;2196;47.422;9.656;2022-12-18T08:12:49;-2.50;99.90
4366;DHT22;2196;47.422;9.656;2022-12-18T08:15:16;-2.50;99.90
4366;DHT22;2196;47.422;9.656;2022-12-18T08:17:43;-2.50;99.90
4366;DHT22;2196;47.422;9.656;2022-12-18T08:20:12;-2.40;99.90
4366;DHT22;2196;47.422;9.656;2022-12-18T08:22:40;-2.40;99.90
4366;DHT22;2196;47.422;9.656;2022-12-18T08:25:08;-2.40;99.90
4366;DHT22;2196;47.422;9.656;2022-12-18T08:27:35;-2.40;99.90
4366;DHT22;2196;47.422;9.656;2022-12-18T08:30:03;-2.40;99.90
4366;DHT22;2196;47.422;9.656;2022-12-18T08:32:30;-2.40;99.90
4366;DHT22;2196;47.422;9.656;2022-12-18T08:34:58;-2.40;99.90
4366;DHT22;2196;47.422;9.656;2022-12-18T08:37:27;-2.40;99.90
4366;DHT22;2196;47.422;9.656;2022-12-18T08:39:53;-2.40;99.90
4366;DHT22;2196;47.422;9.656;2022-12-18T08:42:21;-2.40;99.90
4366;DHT22;2196;47.422;9.656;2022-12-18T08:45:06;-2.40;99.90
4366;DHT22;2196;47.422;9.656;2022-12-18T08:47:33;-2.40;99.90
4366;DHT22;2196;47.422;9.656;2022-12-18T08:50:00;-2.30;99.90
4366;DHT22;2196;47.422;9.656;2022-12-18T08:52:30;-2.40;99.90
4366;DHT22;2196;47.422;9.656;2022-12-18T08:54:57;-2.40;99.90
4366;DHT22;2196;47.422;9.656;2022-12-18T08:57:24;-2.30;99.90
4366;DHT22;2196;47.422;9.656;2022-12-18T08:59:51;-2.30;99.90
4366;DHT22;2196;47.422;9.656;2022-12-18T09:02:19;-2.30;99.90
4366;DHT22;2196;47.422;9.656;2022-12-18T09:04:47;-2.30;99.90
4366;DHT22;2196;47.422;9.656;2022-12-18T09:07:14;-2.30;99.90
4366;DHT22;2196;47.422;9.656;2022-12-18T09:09:42;-2.40;99.90
4366;DHT22;2196;47.422;9.656;2022-12-18T09:12:09;-2.30;99.90
4366;DHT22;2196;47.422;9.656;2022-12-18T09:14:36;-2.30;99.90
4366;DHT22;2196;47.422;9.656;2022-12-18T09:17:03;-2.10;99.90
4366;DHT22;2196;47.422;9.656;2022-12-18T09:19:31;-2.00;99.90
4366;DHT22;2196;47.422;9.656;2022-12-18T09:21:58;-2.00;99.90
4366;DHT22;2196;47.422;9.656;2022-12-18T09:24:25;-2.10;99.90
4366;DHT22;2196;47.422;9.656;2022-12-18T09:26:54;-2.00;99.90
4366;DHT22;2196;47.422;9.656;2022-12-18T09:29:21;-2.00;99.90
4366;DHT22;2196;47.422;9.656;2022-12-18T09:31:52;-2.00;99.90
4366;DHT22;2196;47.422;9.656;2022-12-18T09:34:19;-2.00;99.90
4366;DHT22;2196;47.422;9.656;2022-12-18T09:36:50;-2.10;99.90
4366;DHT22;2196;47.422;9.656;2022-12-18T09:39:17;-2.00;99.90
4366;DHT22;2196;47.422;9.656;2022-12-18T09:41:46;-2.00;99.90
4366;DHT22;2196;47.422;9.656;2022-12-18T09:44:23;-2.00;99.90
4366;DHT22;2196;47.422;9.656;2022-12-18T09:47:07;-2.10;99.90
4366;DHT22;2196;47.422;9.656;2022-12-18T09:49:38;-2.30;99.90
4366;DHT22;2196;47.422;9.656;2022-12-18T09:52:11;-2.50;99.90
4366;DHT22;2196;47.422;9.656;2022-12-18T09:54:41;-2.30;99.90
4366;DHT22;2196;47.422;9.656;2022-12-18T09:57:13;-2.20;99.90
4366;DHT22;2196;47.422;9.656;2022-12-18T09:59:46;-2.00;99.90
4366;DHT22;2196;47.422;9.656;2022-12-18T10:02:17;-1.90;99.90
4366;DHT22;2196;47.422;9.656;2022-12-18T10:04:50;-1.80;99.90
4366;DHT22;2196;47.422;9.656;2022-12-18T10:07:24;-1.70;99.90
4366;DHT22;2196;47.422;9.656;2022-12-18T10:10:01;-1.90;99.90
4366;DHT22;2196;47.422;9.656;2022-12-18T10:12:37;-1.70;99.90
4366;DHT22;2196;47.422;9.656;2022-12-18T10:15:15;-1.60;99.90
4366;DHT22;2196;47.422;9.656;2022-12-18T10:17:48;-1.40;99.90
4366;DHT22;2196;47.422;9.656;2022-12-18T10:20:23;-1.20;99.90
4366;DHT22;2196;47.422;9.656;2022-12-18T10:22:57;-1.20;99.90
4366;DHT22;2196;47.422;9.656;2022-12-18T10:25:28;-1.20;99.90
4366;DHT22;2196;47.422;9.656;2022-12-18T10:28:07;-1.20;99.90
4366;DHT22;2196;47.422;9.656;2022-12-18T10:30:38;-1.40;99.90
4366;DHT22;2196;47.422;9.656;2022-12-18T10:33:08;-1.40;99.90
4366;DHT22;2196;47.422;9.656;2022-12-18T10:35:41;-1.10;99.90
4366;DHT22;2196;47.422;9.656;2022-12-18T10:38:21;-1.00;99.90
4366;DHT22;2196;47.422;9.656;2022-12-18T10:40:50;-0.80;99.90
4366;DHT22;2196;47.422;9.656;2022-12-18T10:43:22;-0.70;99.90
4366;DHT22;2196;47.422;9.656;2022-12-18T10:48:52;-0.90;99.90
4366;DHT22;2196;47.422;9.656;2022-12-18T10:51:22;-0.90;99.90
4366;DHT22;2196;47.422;9.656;2022-12-18T10:53:54;-0.90;99.90
4366;DHT22;2196;47.422;9.656;2022-12-18T10:56:24;-0.90;99.90
4366;DHT22;2196;47.422;9.656;2022-12-18T10:58:57;-1.00;99.90
4366;DHT22;2196;47.422;9.656;2022-12-18T11:01:26;-0.90;99.90
4366;DHT22;2196;47.422;9.656;2022-12-18T11:04:04;-0.90;99.90
4366;DHT22;2196;47.422;9.656;2022-12-18T11:06:56;-0.80;99.90
4366;DHT22;2196;47.422;9.656;2022-12-18T11:09:25;-0.70;99.90
4366;DHT22;2196;47.422;9.656;2022-12-18T11:11:54;-0.70;99.90
4366;DHT22;2196;47.422;9.656;2022-12-18T11:14:23;-0.60;99.90
4366;DHT22;2196;47.422;9.656;2022-12-18T11:16:54;-0.80;99.90
4366;DHT22;2196;47.422;9.656;2022-12-18T11:19:29;-1.00;99.90
4366;DHT22;2196;47.422;9.656;2022-12-18T11:21:58;-1.20;99.90
4366;DHT22;2196;47.422;9.656;2022-12-18T11:24:29;-1.00;99.90
4366;DHT22;2196;47.422;9.656;2022-12-18T11:26:58;-1.00;99.90
4366;DHT22;2196;47.422;9.656;2022-12-18T11:29:35;-1.20;99.90
4366;DHT22;2196;47.422;9.656;2022-12-18T11:32:25;-1.00;99.90
4366;DHT22;2196;47.422;9.656;2022-12-18T11:35:00;-0.90;99.90
4366;DHT22;2196;47.422;9.656;2022-12-18T11:37:29;-0.90;99.90
4366;DHT22;2196;47.422;9.656;2022-12-18T11:40:01;-0.90;99.90
4366;DHT22;2196;47.422;9.656;2022-12-18T11:42:35;-0.80;99.90
4366;DHT22;2196;47.422;9.656;2022-12-18T11:45:24;-0.70;99.90
4366;DHT22;2196;47.422;9.656;2022-12-18T11:47:57;-0.60;99.90
4366;DHT22;2196;47.422;9.656;2022-12-18T11:50:28;-0.50;99.90
4366;DHT22;2196;47.422;9.656;2022-12-18T11:52:56;-0.60;99.90
4366;DHT22;2196;47.422;9.656;2022-12-18T11:55:31;-0.50;99.90
4366;DHT22;2196;47.422;9.656;2022-12-18T11:58:10;-0.40;99.90
4366;DHT22;2196;47.422;9.656;2022-12-18T12:00:45;-0.40;99.90
4366;DHT22;2196;47.422;9.656;2022-12-18T12:06:28;-0.40;99.90
4366;DHT22;2196;47.422;9.656;2022-12-18T12:09:07;-0.50;99.90
4366;DHT22;2196;47.422;9.656;2022-12-18T12:11:45;-0.40;99.90
4366;DHT22;2196;47.422;9.656;2022-12-18T12:14:29;-0.50;99.90
4366;DHT22;2196;47.422;9.656;2022-12-18T12:17:05;-0.40;99.90
4366;DHT22;2196;47.422;9.656;2022-12-18T12:19:45;-0.40;99.90
4366;DHT22;2196;47.422;9.656;2022-12-18T12:22:20;-0.30;99.90
4366;DHT22;2196;47.422;9.656;2022-12-18T12:24:59;-0.30;99.90
4366;DHT22;2196;47.422;9.656;2022-12-18T12:27:36;-0.40;99.90
4366;DHT22;2196;47.422;9.656;2022-12-18T12:30:08;-0.30;99.90
4366;DHT22;2196;47.422;9.656;2022-12-18T12:32:47;-0.30;99.90
4366;DHT22;2196;47.422;9.656;2022-12-18T12:35:29;-0.30;99.90
4366;DHT22;2196;47.422;9.656;2022-12-18T12:38:08;-0.30;99.90
4366;DHT22;2196;47.422;9.656;2022-12-18T12:40:39;-0.30;99.90
4366;DHT22;2196;47.422;9.656;2022-12-18T12:43:22;-0.30;99.90
4366;DHT22;2196;47.422;9.656;2022-12-18T12:45:52;-0.30;99.90
4366;DHT22;2196;47.422;9.656;2022-12-18T12:48:30;-0.20;99.90
4366;DHT22;2196;47.422;9.656;2022-12-18T12:51:01;-0.20;99.90
4366;DHT22;2196;47.422;9.656;2022-12-18T12:53:34;-0.10;99.90
4366;DHT22;2196;47.422;9.656;2022-12-18T12:56:03;-0.10;99.90
4366;DHT22;2196;47.422;9.656;2022-12-18T12:58:36;0.00;99.90
4366;DHT22;2196;47.422;9.656;2022-12-18T13:01:12;-0.10;99.90
4366;DHT22;2196;47.422;9.656;2022-12-18T13:03:50;-0.20;99.90
4366;DHT22;2196;47.422;9.656;2022-12-18T13:06:38;-0.20;99.90
4366;DHT22;2196;47.422;9.656;2022-12-18T13:09:07;-0.20;99.90
4366;DHT22;2196;47.422;9.656;2022-12-18T13:11:37;-0.20;99.90
4366;DHT22;2196;47.422;9.656;2022-12-18T13:14:25;-0.20;99.90
4366;DHT22;2196;47.422;9.656;2022-12-18T13:17:27;-0.30;99.90
4366;DHT22;2196;47.422;9.656;2022-12-18T13:20:09;-0.10;99.90
4366;DHT22;2196;47.422;9.656;2022-12-18T13:22:40;0.00;99.90
4366;DHT22;2196;47.422;9.656;2022-12-18T13:25:27;0.00;99.90
4366;DHT22;2196;47.422;9.656;2022-12-18T13:28:06;-0.20;99.90
4366;DHT22;2196;47.422;9.656;2022-12-18T13:30:52;-0.30;99.90
4366;DHT22;2196;47.422;9.656;2022-12-18T13:36:24;-0.30;99.90
4366;DHT22;2196;47.422;9.656;2022-12-18T13:42:31;-0.30;99.90
4366;DHT22;2196;47.422;9.656;2022-12-18T13:45:42;-0.30;99.90
4366;DHT22;2196;47.422;9.656;2022-12-18T13:48:24;-0.20;99.90
4366;DHT22;2196;47.422;9.656;2022-12-18T13:51:03;-0.30;99.90
4366;DHT22;2196;47.422;9.656;2022-12-18T13:53:34;-0.50;99.90
4366;DHT22;2196;47.422;9.656;2022-12-18T13:56:03;-0.50;99.90
4366;DHT22;2196;47.422;9.656;2022-12-18T13:58:32;-0.50;99.90
4366;DHT22;2196;47.422;9.656;2022-12-18T14:00:59;-0.60;99.90
4366;DHT22;2196;47.422;9.656;2022-12-18T14:06:01;-0.50;99.90
4366;DHT22;2196;47.422;9.656;2022-12-18T14:08:33;-0.60;99.90
4366;DHT22;2196;47.422;9.656;2022-12-18T14:11:03;-0.50;99.90
4366;DHT22;2196;47.422;9.656;2022-12-18T14:13:35;-0.60;99.90
4366;DHT22;2196;47.422;9.656;2022-12-18T14:16:05;-0.60;99.90
4366;DHT22;2196;47.422;9.656;2022-12-18T14:18:38;-0.60;99.90
4366;DHT22;2196;47.422;9.656;2022-12-18T14:21:21;-0.50;99.90
4366;DHT22;2196;47.422;9.656;2022-12-18T14:23:48;-0.50;99.90
4366;DHT22;2196;47.422;9.656;2022-12-18T14:26:24;-0.50;99.90
4366;DHT22;2196;47.422;9.656;2022-12-18T14:28:55;-0.60;99.90
4366;DHT22;2196;47.422;9.656;2022-12-18T14:31:24;-0.70;99.90
4366;DHT22;2196;47.422;9.656;2022-12-18T14:33:52;-0.80;99.90
4366;DHT22;2196;47.422;9.656;2022-12-18T14:36:21;-0.90;99.90
4366;DHT22;2196;47.422;9.656;2022-12-18T14:38:50;-0.90;99.90
4366;DHT22;2196;47.422;9.656;2022-12-18T14:41:18;-0.90;99.90
4366;DHT22;2196;47.422;9.656;2022-12-18T14:43:47;-0.80;99.90
4366;DHT22;2196;47.422;9.656;2022-12-18T14:46:32;-0.90;99.90
4366;DHT22;2196;47.422;9.656;2022-12-18T14:49:02;-0.80;99.90
4366;DHT22;2196;47.422;9.656;2022-12-18T14:51:30;-0.90;99.90
4366;DHT22;2196;47.422;9.656;2022-12-18T14:53:59;-0.90;99.90
4366;DHT22;2196;47.422;9.656;2022-12-18T14:56:28;-0.90;99.90
4366;DHT22;2196;47.422;9.656;2022-12-18T14:58:57;-1.00;99.90
4366;DHT22;2196;47.422;9.656;2022-12-18T15:01:27;-1.00;99.90
4366;DHT22;2196;47.422;9.656;2022-12-18T15:03:57;-0.90;99.90
4366;DHT22;2196;47.422;9.656;2022-12-18T15:06:28;-1.00;99.90
4366;DHT22;2196;47.422;9.656;2022-12-18T15:08:55;-0.90;99.90
4366;DHT22;2196;47.422;9.656;2022-12-18T15:11:28;-1.00;99.90
4366;DHT22;2196;47.422;9.656;2022-12-18T15:13:57;-1.10;99.90
4366;DHT22;2196;47.422;9.656;2022-12-18T15:16:24;-1.20;99.90
4366;DHT22;2196;47.422;9.656;2022-12-18T15:18:51;-1.30;99.90
4366;DHT22;2196;47.422;9.656;2022-12-18T15:21:21;-1.30;99.90
4366;DHT22;2196;47.422;9.656;2022-12-18T15:23:50;-1.40;99.90
4366;DHT22;2196;47.422;9.656;2022-12-18T15:26:19;-1.40;99.90
4366;DHT22;2196;47.422;9.656;2022-12-18T15:28:47;-1.50;99.90
4366;DHT22;2196;47.422;9.656;2022-12-18T15:31:23;-1.60;99.90
4366;DHT22;2196;47.422;9.656;2022-12-18T15:34:12;-1.60;99.90
4366;DHT22;2196;47.422;9.656;2022-12-18T15:36:41;-1.60;99.90
4366;DHT22;2196;47.422;9.656;2022-12-18T15:39:11;-1.60;99.90
4366;DHT22;2196;47.422;9.656;2022-12-18T15:41:41;-1.60;99.90
4366;DHT22;2196;47.422;9.656;2022-12-18T15:44:29;-1.70;99.90
4366;DHT22;2196;47.422;9.656;2022-12-18T15:46:55;-1.70;99.90
4366;DHT22;2196;47.422;9.656;2022-12-18T15:49:22;-1.70;99.90
4366;DHT22;2196;47.422;9.656;2022-12-18T15:51:55;-1.70;99.90
4366;DHT22;2196;47.422;9.656;2022-12-18T15:54:23;-1.70;99.90
4366;DHT22;2196;47.422;9.656;2022-12-18T15:57:04;-1.70;99.90
4366;DHT22;2196;47.422;9.656;2022-12-18T15:59:49;-1.80;99.90
4366;DHT22;2196;47.422;9.656;2022-12-18T16:02:19;-1.70;99.90
4366;DHT22;2196;47.422;9.656;2022-12-18T16:04:48;-1.70;99.90
4366;DHT22;2196;47.422;9.656;2022-12-18T16:07:16;-1.70;99.90
4366;DHT22;2196;47.422;9.656;2022-12-18T16:09:43;-1.70;99.90
4366;DHT22;2196;47.422;9.656;2022-12-18T16:12:17;-1.70;99.90
4366;DHT22;2196;47.422;9.656;2022-12-18T16:14:45;-1.70;99.90
4366;DHT22;2196;47.422;9.656;2022-12-18T16:17:13;-1.70;99.90
4366;DHT22;2196;47.422;9.656;2022-12-18T16:19:43;-1.50;99.90
4366;DHT22;2196;47.422;9.656;2022-12-18T16:22:22;-1.50;99.90
4366;DHT22;2196;47.422;9.656;2022-12-18T16:24:50;-1.50;99.90
4366;DHT22;2196;47.422;9.656;2022-12-18T16:27:17;-1.60;99.90
4366;DHT22;2196;47.422;9.656;2022-12-18T16:29:44;-1.70;99.90
4366;DHT22;2196;47.422;9.656;2022-12-18T16:32:13;-1.60;99.90
4366;DHT22;2196;47.422;9.656;2022-12-18T16:34:41;-1.60;99.90
4366;DHT22;2196;47.422;9.656;2022-12-18T16:37:10;-1.60;99.90
4366;DHT22;2196;47.422;9.656;2022-12-18T16:39:39;-1.80;99.90